Star Flyer — 9HA2512 — position and weather

sailwx.info

Track history (hours):
 
Tides and Currents Weather Stations Pressure Air Temp Water Temp Dewpoint Dewpoint Depression Visibility Wind Speed Wind Dir Waves Ship Positions

Star Flyer

Last reported at 2017-Dec-11 05:55 UTC. Time now 2018-Jan-21 05:10 UTC.
Position N 09°35' W 079°56'.
Warning: this ship's position is 40 days out of date.

Length 112 m; draft 5.9 m.

Type: Ship. MMSI: 248785000.

Date/timePositionNaut miles runAvg speedWind from/ knotsBaromVisibWave heightAir tempDewpointWater temp
2017-Dec-11 05:55N 09°35' W 079°56'3 7.2
2017-Dec-11 05:30N 09°32' W 079°55'4 8.5
2017-Dec-11 05:00N 09°28' W 079°55'4 8.8
2017-Dec-11 04:30N 09°24' W 079°55'2 3.0
2017-Dec-11 03:58N 09°22' W 079°56'0 0.0
2017-Dec-11 03:28N 09°22' W 079°56'0 0.0
2017-Dec-11 02:58N 09°22' W 079°56'0 0.0
2017-Dec-11 02:28N 09°22' W 079°56'0 0.1
2017-Dec-11 01:58N 09°22' W 079°56'0 0.0
2017-Dec-11 01:28N 09°22' W 079°56'0 0.0
2017-Dec-11 00:58N 09°22' W 079°56'0 0.0
2017-Dec-11 00:28N 09°22' W 079°56'0 0.0
2017-Dec-10 23:58N 09°22' W 079°56'0 0.0
2017-Dec-10 23:28N 09°22' W 079°56'0 0.0
2017-Dec-10 22:58N 09°22' W 079°56'0 0.0
2017-Dec-10 22:28N 09°22' W 079°56'0 0.0
2017-Dec-10 21:55N 09°22' W 079°56'0 0.0
2017-Dec-10 21:28N 09°22' W 079°56'0 0.0
2017-Dec-10 21:00N 09°22' W 079°56'2 3.5
2017-Dec-10 20:30N 09°23' W 079°54'3 5.9
2017-Dec-10 20:01N 09°20' W 079°55'3 6.2
2017-Dec-10 19:31N 09°17' W 079°55'0 0.8
2017-Dec-10 19:00N 09°16' W 079°55'1 1.1
2017-Dec-10 18:31N 09°16' W 079°55'1 2.4
2017-Dec-10 18:00N 09°14' W 079°55'1 2.5
2017-Dec-10 17:31N 09°13' W 079°55'30 1.0
2017-Dec-09 09:44N 08°55' W 079°31'0 0.0
2017-Dec-09 09:26N 08°55' W 079°31'0 0.0
2017-Dec-09 08:59N 08°55' W 079°31'0 0.0
2017-Dec-09 08:17N 08°55' W 079°31'0 0.0
2017-Dec-09 07:56N 08°55' W 079°31'30 1.8
2017-Dec-08 15:14N 09°13' W 079°55'2 7.7
2017-Dec-08 14:55N 09°15' W 079°55'0 0.1
2017-Dec-08 14:26N 09°15' W 079°55'0 0.9
2017-Dec-08 14:00N 09°15' W 079°55'1 1.6
2017-Dec-08 13:30N 09°16' W 079°55'0 0.7
2017-Dec-08 12:59N 09°17' W 079°55'0 0.5
2017-Dec-08 12:28N 09°17' W 079°55'1 1.6
2017-Dec-08 12:01N 09°18' W 079°55'2 3.2
2017-Dec-08 11:30N 09°19' W 079°55'3 5.1
2017-Dec-08 11:00N 09°22' W 079°55'2 3.0
2017-Dec-08 10:30N 09°23' W 079°55'3 5.4
2017-Dec-08 10:01N 09°26' W 079°55'3 5.2
2017-Dec-08 09:31N 09°28' W 079°54'3 6.3
2017-Dec-08 09:01N 09°31' W 079°53'4 7.2
2017-Dec-08 08:30N 09°35' W 079°52'  
Track history (hours):
 
Tides and Currents Weather Stations Pressure Air Temp Water Temp Dewpoint Dewpoint Depression Visibility Wind Speed Wind Dir Waves Ship Positions

Star Flyer

Last reported at 2017-Dec-11 05:55 UTC. Time now 2018-Jan-21 05:10 UTC.
Position N 09°35' W 079°56'.
Warning: this ship's position is 40 days out of date.

Length 112 m; draft 5.9 m.

Type: Ship. MMSI: 248785000.

Date/timePositionNaut miles runAvg speedWind from/ knotsBaromVisibWave heightAir tempDewpointWater temp
2017-Dec-11 05:55N 09°35' W 079°56'3 7.2
2017-Dec-11 05:30N 09°32' W 079°55'4 8.5
2017-Dec-11 05:00N 09°28' W 079°55'4 8.8
2017-Dec-11 04:30N 09°24' W 079°55'2 3.0
2017-Dec-11 03:58N 09°22' W 079°56'0 0.0
2017-Dec-11 03:28N 09°22' W 079°56'0 0.0
2017-Dec-11 02:58N 09°22' W 079°56'0 0.0
2017-Dec-11 02:28N 09°22' W 079°56'0 0.1
2017-Dec-11 01:58N 09°22' W 079°56'0 0.0
2017-Dec-11 01:28N 09°22' W 079°56'0 0.0
2017-Dec-11 00:58N 09°22' W 079°56'0 0.0
2017-Dec-11 00:28N 09°22' W 079°56'0 0.0
2017-Dec-10 23:58N 09°22' W 079°56'0 0.0
2017-Dec-10 23:28N 09°22' W 079°56'0 0.0
2017-Dec-10 22:58N 09°22' W 079°56'0 0.0
2017-Dec-10 22:28N 09°22' W 079°56'0 0.0
2017-Dec-10 21:55N 09°22' W 079°56'0 0.0
2017-Dec-10 21:28N 09°22' W 079°56'0 0.0
2017-Dec-10 21:00N 09°22' W 079°56'2 3.5
2017-Dec-10 20:30N 09°23' W 079°54'3 5.9
2017-Dec-10 20:01N 09°20' W 079°55'3 6.2
2017-Dec-10 19:31N 09°17' W 079°55'0 0.8
2017-Dec-10 19:00N 09°16' W 079°55'1 1.1
2017-Dec-10 18:31N 09°16' W 079°55'1 2.4
2017-Dec-10 18:00N 09°14' W 079°55'1 2.5
2017-Dec-10 17:31N 09°13' W 079°55'30 1.0
2017-Dec-09 09:44N 08°55' W 079°31'0 0.0
2017-Dec-09 09:26N 08°55' W 079°31'0 0.0
2017-Dec-09 08:59N 08°55' W 079°31'0 0.0
2017-Dec-09 08:17N 08°55' W 079°31'0 0.0
2017-Dec-09 07:56N 08°55' W 079°31'30 1.8
2017-Dec-08 15:14N 09°13' W 079°55'2 7.7
2017-Dec-08 14:55N 09°15' W 079°55'0 0.1
2017-Dec-08 14:26N 09°15' W 079°55'0 0.9
2017-Dec-08 14:00N 09°15' W 079°55'1 1.6
2017-Dec-08 13:30N 09°16' W 079°55'0 0.7
2017-Dec-08 12:59N 09°17' W 079°55'0 0.5
2017-Dec-08 12:28N 09°17' W 079°55'1 1.6
2017-Dec-08 12:01N 09°18' W 079°55'2 3.2
2017-Dec-08 11:30N 09°19' W 079°55'3 5.1
2017-Dec-08 11:00N 09°22' W 079°55'2 3.0
2017-Dec-08 10:30N 09°23' W 079°55'3 5.4
2017-Dec-08 10:01N 09°26' W 079°55'3 5.2
2017-Dec-08 09:31N 09°28' W 079°54'3 6.3
2017-Dec-08 09:01N 09°31' W 079°53'4 7.2
2017-Dec-08 08:30N 09°35' W 079°52'  

Dump ship's entire track history